sensor_id;sensor_type;location;lat;lon;timestamp;P1;durP1;ratioP1;P2;durP2;ratioP2
59986;SDS011;46181;51.498;5.392;2022-12-18T00:01:21;23.964;;;11.776;;
59986;SDS011;46181;51.498;5.392;2022-12-18T00:05:51;29.264;;;13.776;;
59986;SDS011;46181;51.498;5.392;2022-12-18T00:10:22;30.048;;;13.152;;
59986;SDS011;46181;51.498;5.392;2022-12-18T00:14:50;26.668;;;12.776;;
59986;SDS011;46181;51.498;5.392;2022-12-18T00:19:20;27.676;;;12.512;;
59986;SDS011;46181;51.498;5.392;2022-12-18T00:23:50;24.54;;;11.912;;
59986;SDS011;46181;51.498;5.392;2022-12-18T00:28:20;25.376;;;12.192;;
59986;SDS011;46181;51.498;5.392;2022-12-18T00:32:50;25.5;;;12.576;;
59986;SDS011;46181;51.498;5.392;2022-12-18T00:37:20;25.38;;;11.992;;
59986;SDS011;46181;51.498;5.392;2022-12-18T00:41:50;25.676;;;13.028;;
59986;SDS011;46181;51.498;5.392;2022-12-18T00:46:20;27.228;;;13.188;;
59986;SDS011;46181;51.498;5.392;2022-12-18T00:50:50;25.392;;;12.752;;
59986;SDS011;46181;51.498;5.392;2022-12-18T00:55:20;33.38;;;13.124;;
59986;SDS011;46181;51.498;5.392;2022-12-18T00:59:50;26.752;;;11.744;;
59986;SDS011;46181;51.498;5.392;2022-12-18T01:04:20;29.196;;;11.756;;
59986;SDS011;46181;51.498;5.392;2022-12-18T01:08:50;28.816;;;12.364;;
59986;SDS011;46181;51.498;5.392;2022-12-18T01:13:20;24.784;;;11.368;;
59986;SDS011;46181;51.498;5.392;2022-12-18T01:17:51;25.412;;;11.784;;
59986;SDS011;46181;51.498;5.392;2022-12-18T01:22:20;28;;;12.3;;
59986;SDS011;46181;51.498;5.392;2022-12-18T01:26:50;22.488;;;10.94;;
59986;SDS011;46181;51.498;5.392;2022-12-18T01:31:21;23.332;;;10.748;;
59986;SDS011;46181;51.498;5.392;2022-12-18T01:35:50;24.432;;;11.42;;
59986;SDS011;46181;51.498;5.392;2022-12-18T01:40:20;25.304;;;11.916;;
59986;SDS011;46181;51.498;5.392;2022-12-18T01:45:00;20.604;;;10.172;;
59986;SDS011;46181;51.498;5.392;2022-12-18T01:49:20;23.452;;;11.096;;
59986;SDS011;46181;51.498;5.392;2022-12-18T01:53:50;21.116;;;10.344;;
59986;SDS011;46181;51.498;5.392;2022-12-18T01:58:21;22.696;;;10.148;;
59986;SDS011;46181;51.498;5.392;2022-12-18T02:02:50;24.42;;;10.708;;
59986;SDS011;46181;51.498;5.392;2022-12-18T02:07:22;19.572;;;9.508001;;
59986;SDS011;46181;51.498;5.392;2022-12-18T02:11:53;24.36;;;11.728;;
59986;SDS011;46181;51.498;5.392;2022-12-18T02:16:23;23.212;;;10.636;;
59986;SDS011;46181;51.498;5.392;2022-12-18T02:20:52;22.6;;;10.192;;
59986;SDS011;46181;51.498;5.392;2022-12-18T02:25:25;22.04;;;10.1;;
59986;SDS011;46181;51.498;5.392;2022-12-18T02:29:50;24.876;;;11.272;;
59986;SDS011;46181;51.498;5.392;2022-12-18T02:34:21;18.596;;;9.623999;;
59986;SDS011;46181;51.498;5.392;2022-12-18T02:38:50;21.396;;;9.616;;
59986;SDS011;46181;51.498;5.392;2022-12-18T02:43:20;18.596;;;9.628;;
59986;SDS011;46181;51.498;5.392;2022-12-18T02:47:50;17.744;;;9.584001;;
59986;SDS011;46181;51.498;5.392;2022-12-18T02:52:22;19.92;;;10.32;;
59986;SDS011;46181;51.498;5.392;2022-12-18T02:56:51;17.628;;;9.228;;
59986;SDS011;46181;51.498;5.392;2022-12-18T03:01:21;17.612;;;10.184;;
59986;SDS011;46181;51.498;5.392;2022-12-18T03:05:52;21.744;;;10.188;;
59986;SDS011;46181;51.498;5.392;2022-12-18T03:10:21;19.196;;;8.976001;;
59986;SDS011;46181;51.498;5.392;2022-12-18T03:14:50;20.48;;;9.423999;;
59986;SDS011;46181;51.498;5.392;2022-12-18T03:19:21;17.488;;;8.66;;
59986;SDS011;46181;51.498;5.392;2022-12-18T03:23:50;17.124;;;8.624;;
59986;SDS011;46181;51.498;5.392;2022-12-18T03:28:21;13.692;;;9.028001;;
59986;SDS011;46181;51.498;5.392;2022-12-18T03:32:52;18.888;;;9.452;;
59986;SDS011;46181;51.498;5.392;2022-12-18T03:37:20;18.056;;;9.263999;;
59986;SDS011;46181;51.498;5.392;2022-12-18T03:41:51;16.556;;;8.768001;;
59986;SDS011;46181;51.498;5.392;2022-12-18T03:46:22;15.776;;;7.772001;;
59986;SDS011;46181;51.498;5.392;2022-12-18T03:50:52;16.496;;;8.472001;;
59986;SDS011;46181;51.498;5.392;2022-12-18T03:55:20;18.32;;;8.832;;
59986;SDS011;46181;51.498;5.392;2022-12-18T03:59:53;15.716;;;8.204;;
59986;SDS011;46181;51.498;5.392;2022-12-18T04:04:20;18.876;;;9.04;;
59986;SDS011;46181;51.498;5.392;2022-12-18T04:08:50;15.356;;;8.176001;;
59986;SDS011;46181;51.498;5.392;2022-12-18T04:13:27;17.688;;;8.455999;;
59986;SDS011;46181;51.498;5.392;2022-12-18T04:17:50;16.42;;;7.928;;
59986;SDS011;46181;51.498;5.392;2022-12-18T04:22:20;17.384;;;8.275998;;
59986;SDS011;46181;51.498;5.392;2022-12-18T04:26:50;15.252;;;8.228;;
59986;SDS011;46181;51.498;5.392;2022-12-18T04:31:20;13.496;;;7.904001;;
59986;SDS011;46181;51.498;5.392;2022-12-18T04:35:50;15.756;;;8.352;;
59986;SDS011;46181;51.498;5.392;2022-12-18T04:40:20;17.828;;;8.864001;;
59986;SDS011;46181;51.498;5.392;2022-12-18T04:44:50;19.24;;;8.412001;;
59986;SDS011;46181;51.498;5.392;2022-12-18T04:49:20;16.972;;;8.444001;;
59986;SDS011;46181;51.498;5.392;2022-12-18T04:53:50;17.288;;;8.072001;;
59986;SDS011;46181;51.498;5.392;2022-12-18T04:58:20;17.868;;;9.156002;;
59986;SDS011;46181;51.498;5.392;2022-12-18T05:02:50;14.16;;;7.464;;
59986;SDS011;46181;51.498;5.392;2022-12-18T05:07:20;15.804;;;8.051999;;
59986;SDS011;46181;51.498;5.392;2022-12-18T05:11:50;15.6;;;6.716001;;
59986;SDS011;46181;51.498;5.392;2022-12-18T05:16:20;14.512;;;7.34;;
59986;SDS011;46181;51.498;5.392;2022-12-18T05:20:50;15.56;;;7.396;;
59986;SDS011;46181;51.498;5.392;2022-12-18T05:25:20;12.696;;;7.244001;;
59986;SDS011;46181;51.498;5.392;2022-12-18T05:29:50;14.392;;;7.488001;;
59986;SDS011;46181;51.498;5.392;2022-12-18T05:34:20;14.996;;;8.192;;
59986;SDS011;46181;51.498;5.392;2022-12-18T05:38:50;16.344;;;9.191999;;
59986;SDS011;46181;51.498;5.392;2022-12-18T05:43:21;10.484;;;5.856;;
59986;SDS011;46181;51.498;5.392;2022-12-18T05:47:50;13.032;;;6.828001;;
59986;SDS011;46181;51.498;5.392;2022-12-18T05:52:20;12.768;;;7.308;;
59986;SDS011;46181;51.498;5.392;2022-12-18T05:56:50;17.476;;;8.511999;;
59986;SDS011;46181;51.498;5.392;2022-12-18T06:01:21;14.464;;;8.311999;;
59986;SDS011;46181;51.498;5.392;2022-12-18T06:05:50;16.82;;;8.8;;
59986;SDS011;46181;51.498;5.392;2022-12-18T06:10:20;12.776;;;7.08;;
59986;SDS011;46181;51.498;5.392;2022-12-18T06:14:50;14.292;;;7.708001;;
59986;SDS011;46181;51.498;5.392;2022-12-18T06:19:20;17.572;;;7.780001;;
59986;SDS011;46181;51.498;5.392;2022-12-18T06:23:50;13.16;;;6.695999;;
59986;SDS011;46181;51.498;5.392;2022-12-18T06:28:20;15.676;;;7.240001;;
59986;SDS011;46181;51.498;5.392;2022-12-18T06:32:51;12.952;;;6.908001;;
59986;SDS011;46181;51.498;5.392;2022-12-18T06:37:20;14.392;;;6.912001;;
59986;SDS011;46181;51.498;5.392;2022-12-18T06:41:50;13.416;;;7.06;;
59986;SDS011;46181;51.498;5.392;2022-12-18T06:46:20;13.988;;;7.243999;;
59986;SDS011;46181;51.498;5.392;2022-12-18T06:50:50;15.476;;;7.544;;
59986;SDS011;46181;51.498;5.392;2022-12-18T06:55:21;17.196;;;7.868001;;
59986;SDS011;46181;51.498;5.392;2022-12-18T06:59:50;14.188;;;7.148;;
59986;SDS011;46181;51.498;5.392;2022-12-18T07:04:20;12.484;;;6.196;;
59986;SDS011;46181;51.498;5.392;2022-12-18T07:08:50;13.044;;;7.587999;;
59986;SDS011;46181;51.498;5.392;2022-12-18T07:13:20;11.508;;;6.628;;
59986;SDS011;46181;51.498;5.392;2022-12-18T07:17:50;14.224;;;7.024;;
59986;SDS011;46181;51.498;5.392;2022-12-18T07:22:20;12.004;;;6.556;;
59986;SDS011;46181;51.498;5.392;2022-12-18T07:26:50;12.768;;;7.131998;;
59986;SDS011;46181;51.498;5.392;2022-12-18T07:31:20;14.64;;;6.636;;
59986;SDS011;46181;51.498;5.392;2022-12-18T07:35:50;14.488;;;7.287999;;
59986;SDS011;46181;51.498;5.392;2022-12-18T07:40:20;13.664;;;7.6;;
59986;SDS011;46181;51.498;5.392;2022-12-18T07:44:50;13.964;;;7.612001;;
59986;SDS011;46181;51.498;5.392;2022-12-18T07:49:20;13.032;;;7.251999;;
59986;SDS011;46181;51.498;5.392;2022-12-18T07:53:50;13.432;;;7.347999;;
59986;SDS011;46181;51.498;5.392;2022-12-18T07:58:20;14.616;;;7.859999;;
59986;SDS011;46181;51.498;5.392;2022-12-18T08:02:50;15.024;;;6.787999;;
59986;SDS011;46181;51.498;5.392;2022-12-18T08:07:20;15.108;;;8.076;;
59986;SDS011;46181;51.498;5.392;2022-12-18T08:11:50;15.604;;;7.644001;;
59986;SDS011;46181;51.498;5.392;2022-12-18T08:16:20;12.696;;;7.948;;
59986;SDS011;46181;51.498;5.392;2022-12-18T08:20:50;13.668;;;7.723999;;
59986;SDS011;46181;51.498;5.392;2022-12-18T08:25:20;16.648;;;8.596;;
59986;SDS011;46181;51.498;5.392;2022-12-18T08:29:50;13.448;;;7.492;;
59986;SDS011;46181;51.498;5.392;2022-12-18T08:34:20;14.928;;;7.159998;;
59986;SDS011;46181;51.498;5.392;2022-12-18T08:38:50;11.636;;;7.2;;
59986;SDS011;46181;51.498;5.392;2022-12-18T08:43:20;13.664;;;7.735999;;
59986;SDS011;46181;51.498;5.392;2022-12-18T08:47:50;15.42;;;7.700001;;
59986;SDS011;46181;51.498;5.392;2022-12-18T08:52:20;17.884;;;8.76;;
59986;SDS011;46181;51.498;5.392;2022-12-18T08:56:50;15.788;;;8.099999;;
59986;SDS011;46181;51.498;5.392;2022-12-18T09:01:20;14.416;;;8.660001;;
59986;SDS011;46181;51.498;5.392;2022-12-18T09:05:50;16.368;;;8.912002;;
59986;SDS011;46181;51.498;5.392;2022-12-18T09:10:20;15.908;;;9.364;;
59986;SDS011;46181;51.498;5.392;2022-12-18T09:14:50;19.096;;;8.851999;;
59986;SDS011;46181;51.498;5.392;2022-12-18T09:19:20;16;;;8.996;;
59986;SDS011;46181;51.498;5.392;2022-12-18T09:23:53;19.632;;;9.592;;
59986;SDS011;46181;51.498;5.392;2022-12-18T09:28:21;20.384;;;9.688001;;
59986;SDS011;46181;51.498;5.392;2022-12-18T09:32:55;18.092;;;8.763998;;
59986;SDS011;46181;51.498;5.392;2022-12-18T09:37:20;14.916;;;8.46;;
59986;SDS011;46181;51.498;5.392;2022-12-18T09:41:51;18.556;;;9.440001;;
59986;SDS011;46181;51.498;5.392;2022-12-18T09:46:22;19.3;;;8.636;;
59986;SDS011;46181;51.498;5.392;2022-12-18T09:50:50;17.536;;;8.523999;;
59986;SDS011;46181;51.498;5.392;2022-12-18T09:55:22;18.08;;;9.408;;
59986;SDS011;46181;51.498;5.392;2022-12-18T09:59:51;16.86;;;9.26;;
59986;SDS011;46181;51.498;5.392;2022-12-18T10:04:20;17.004;;;9.403999;;
59986;SDS011;46181;51.498;5.392;2022-12-18T10:08:53;20.856;;;9.351999;;
59986;SDS011;46181;51.498;5.392;2022-12-18T10:13:22;18.316;;;9.512001;;
59986;SDS011;46181;51.498;5.392;2022-12-18T10:17:51;22.156;;;10.092;;
59986;SDS011;46181;51.498;5.392;2022-12-18T10:26:50;16.056;;;8.963999;;
59986;SDS011;46181;51.498;5.392;2022-12-18T10:31:21;16.472;;;9.584;;
59986;SDS011;46181;51.498;5.392;2022-12-18T10:35:53;19.088;;;9.2;;
59986;SDS011;46181;51.498;5.392;2022-12-18T10:40:23;16.844;;;8.540001;;
59986;SDS011;46181;51.498;5.392;2022-12-18T10:44:50;16.328;;;8.671999;;
59986;SDS011;46181;51.498;5.392;2022-12-18T10:49:25;16.028;;;8.936001;;
59986;SDS011;46181;51.498;5.392;2022-12-18T10:53:51;15.544;;;8.816;;
59986;SDS011;46181;51.498;5.392;2022-12-18T10:58:23;18.04;;;9.292;;
59986;SDS011;46181;51.498;5.392;2022-12-18T11:02:51;15.324;;;8.723998;;
59986;SDS011;46181;51.498;5.392;2022-12-18T11:07:20;18.876;;;10.152;;
59986;SDS011;46181;51.498;5.392;2022-12-18T11:11:52;16.184;;;9.179998;;
59986;SDS011;46181;51.498;5.392;2022-12-18T11:16:22;19.888;;;10.112;;
59986;SDS011;46181;51.498;5.392;2022-12-18T11:20:54;20.28;;;10.02;;
59986;SDS011;46181;51.498;5.392;2022-12-18T11:25:21;19.76;;;9.892001;;
59986;SDS011;46181;51.498;5.392;2022-12-18T11:29:50;16.528;;;8.460001;;
59986;SDS011;46181;51.498;5.392;2022-12-18T11:34:22;16.12;;;9.016001;;
59986;SDS011;46181;51.498;5.392;2022-12-18T11:38:51;15.592;;;8.983999;;
59986;SDS011;46181;51.498;5.392;2022-12-18T11:43:22;17.952;;;8.791999;;
59986;SDS011;46181;51.498;5.392;2022-12-18T11:47:52;16.772;;;8.960001;;
59986;SDS011;46181;51.498;5.392;2022-12-18T11:52:21;18.84;;;9.608001;;
59986;SDS011;46181;51.498;5.392;2022-12-18T11:56:51;16.292;;;8.948001;;
59986;SDS011;46181;51.498;5.392;2022-12-18T12:01:27;18.084;;;9.671999;;
59986;SDS011;46181;51.498;5.392;2022-12-18T12:05:56;19.816;;;9.828;;
59986;SDS011;46181;51.498;5.392;2022-12-18T12:10:24;17.436;;;8.548;;
59986;SDS011;46181;51.498;5.392;2022-12-18T12:14:52;18.168;;;10.096;;
59986;SDS011;46181;51.498;5.392;2022-12-18T12:19:24;24.26;;;11.056;;
59986;SDS011;46181;51.498;5.392;2022-12-18T12:23:52;23.372;;;10.088;;
59986;SDS011;46181;51.498;5.392;2022-12-18T12:28:32;17.212;;;9.428;;
59986;SDS011;46181;51.498;5.392;2022-12-18T12:32:57;17.072;;;9.191999;;
59986;SDS011;46181;51.498;5.392;2022-12-18T12:37:24;17.44;;;9.379999;;
59986;SDS011;46181;51.498;5.392;2022-12-18T12:41:53;17.764;;;9.752;;
59986;SDS011;46181;51.498;5.392;2022-12-18T12:46:20;16.988;;;8.380001;;
59986;SDS011;46181;51.498;5.392;2022-12-18T12:50:50;22.624;;;9.755999;;
59986;SDS011;46181;51.498;5.392;2022-12-18T12:55:21;19.06;;;9.147999;;
59986;SDS011;46181;51.498;5.392;2022-12-18T12:59:51;19.932;;;10.184;;
59986;SDS011;46181;51.498;5.392;2022-12-18T13:04:23;18.268;;;9.212001;;
59986;SDS011;46181;51.498;5.392;2022-12-18T13:08:58;19.164;;;8.78;;
59986;SDS011;46181;51.498;5.392;2022-12-18T13:13:20;17.392;;;9.268;;
59986;SDS011;46181;51.498;5.392;2022-12-18T13:17:51;19.776;;;9.568001;;
59986;SDS011;46181;51.498;5.392;2022-12-18T13:22:25;17.928;;;9.688001;;
59986;SDS011;46181;51.498;5.392;2022-12-18T13:26:50;17.888;;;9.292;;
59986;SDS011;46181;51.498;5.392;2022-12-18T13:36:00;19.3;;;9.828;;
59986;SDS011;46181;51.498;5.392;2022-12-18T13:44:50;27.308;;;13.308;;
59986;SDS011;46181;51.498;5.392;2022-12-18T13:49:23;20.26;;;10.744;;
59986;SDS011;46181;51.498;5.392;2022-12-18T13:53:52;22.068;;;9.196;;
59986;SDS011;46181;51.498;5.392;2022-12-18T13:58:20;20.884;;;10.08;;
59986;SDS011;46181;51.498;5.392;2022-12-18T14:02:51;18.468;;;9.648;;
59986;SDS011;46181;51.498;5.392;2022-12-18T14:07:21;22.144;;;10.9;;
59986;SDS011;46181;51.498;5.392;2022-12-18T14:11:51;17.632;;;10.032;;
59986;SDS011;46181;51.498;5.392;2022-12-18T14:16:20;20.472;;;9.607999;;
59986;SDS011;46181;51.498;5.392;2022-12-18T14:20:55;18.716;;;9.312;;
59986;SDS011;46181;51.498;5.392;2022-12-18T14:25:21;19.264;;;9.832;;
59986;SDS011;46181;51.498;5.392;2022-12-18T14:29:51;18.364;;;10.224;;
59986;SDS011;46181;51.498;5.392;2022-12-18T14:34:20;19.628;;;9.648001;;
59986;SDS011;46181;51.498;5.392;2022-12-18T14:38:54;19.932;;;9.996;;
59986;SDS011;46181;51.498;5.392;2022-12-18T14:43:21;21.832;;;11.396;;
59986;SDS011;46181;51.498;5.392;2022-12-18T14:47:50;19.304;;;9.660001;;
59986;SDS011;46181;51.498;5.392;2022-12-18T14:52:22;21.588;;;10.456;;
59986;SDS011;46181;51.498;5.392;2022-12-18T14:56:51;17.78;;;9.86;;
59986;SDS011;46181;51.498;5.392;2022-12-18T15:01:25;17.984;;;9.544;;
59986;SDS011;46181;51.498;5.392;2022-12-18T15:05:50;19.376;;;10.824;;
59986;SDS011;46181;51.498;5.392;2022-12-18T15:10:21;19.104;;;10.228;;
59986;SDS011;46181;51.498;5.392;2022-12-18T15:14:51;18.752;;;9.98;;
59986;SDS011;46181;51.498;5.392;2022-12-18T15:19:20;21.984;;;10.84;;
59986;SDS011;46181;51.498;5.392;2022-12-18T15:23:51;17.084;;;9.336;;
59986;SDS011;46181;51.498;5.392;2022-12-18T15:28:24;25.032;;;10.884;;
59986;SDS011;46181;51.498;5.392;2022-12-18T15:32:51;17.636;;;10.168;;
59986;SDS011;46181;51.498;5.392;2022-12-18T15:37:20;21.836;;;10.66;;
59986;SDS011;46181;51.498;5.392;2022-12-18T15:41:51;18.828;;;9.851999;;
59986;SDS011;46181;51.498;5.392;2022-12-18T15:46:21;21.564;;;10.956;;
59986;SDS011;46181;51.498;5.392;2022-12-18T15:50:51;19.312;;;10.504;;
59986;SDS011;46181;51.498;5.392;2022-12-18T15:55:21;20.624;;;11.356;;
59986;SDS011;46181;51.498;5.392;2022-12-18T15:59:51;20.028;;;10.224;;
59986;SDS011;46181;51.498;5.392;2022-12-18T16:04:21;19.188;;;10.548;;
59986;SDS011;46181;51.498;5.392;2022-12-18T16:08:51;19.244;;;9.643999;;
59986;SDS011;46181;51.498;5.392;2022-12-18T16:13:21;19.556;;;10.516;;
59986;SDS011;46181;51.498;5.392;2022-12-18T16:17:51;19.548;;;11.044;;
59986;SDS011;46181;51.498;5.392;2022-12-18T16:22:24;18.408;;;10.536;;
59986;SDS011;46181;51.498;5.392;2022-12-18T16:26:51;22.684;;;11.212;;
59986;SDS011;46181;51.498;5.392;2022-12-18T16:31:21;22.116;;;10.772;;
59986;SDS011;46181;51.498;5.392;2022-12-18T16:35:54;19.908;;;10.364;;
59986;SDS011;46181;51.498;5.392;2022-12-18T16:40:21;18.816;;;10.888;;
59986;SDS011;46181;51.498;5.392;2022-12-18T16:44:51;25.392;;;11.852;;
59986;SDS011;46181;51.498;5.392;2022-12-18T16:49:21;19.144;;;10.964;;
59986;SDS011;46181;51.498;5.392;2022-12-18T16:53:51;18.56;;;10.772;;
59986;SDS011;46181;51.498;5.392;2022-12-18T16:58:21;23.252;;;11.628;;
59986;SDS011;46181;51.498;5.392;2022-12-18T17:02:51;21.884;;;10.736;;
59986;SDS011;46181;51.498;5.392;2022-12-18T17:07:21;21.192;;;10.528;;
59986;SDS011;46181;51.498;5.392;2022-12-18T17:11:51;19.748;;;10.58;;
59986;SDS011;46181;51.498;5.392;2022-12-18T17:16:21;22.532;;;10.784;;
59986;SDS011;46181;51.498;5.392;2022-12-18T17:20:51;22.828;;;10.808;;
59986;SDS011;46181;51.498;5.392;2022-12-18T17:25:21;18.356;;;10.284;;
59986;SDS011;46181;51.498;5.392;2022-12-18T17:29:51;23.32;;;11.292;;
59986;SDS011;46181;51.498;5.392;2022-12-18T17:34:21;19.948;;;10.696;;
59986;SDS011;46181;51.498;5.392;2022-12-18T17:38:53;17.948;;;10.424;;
59986;SDS011;46181;51.498;5.392;2022-12-18T17:43:21;20.464;;;10.66;;
59986;SDS011;46181;51.498;5.392;2022-12-18T17:47:51;19.028;;;10.428;;
59986;SDS011;46181;51.498;5.392;2022-12-18T17:52:21;23.58;;;11.56;;
59986;SDS011;46181;51.498;5.392;2022-12-18T17:56:51;20.724;;;11.068;;
59986;SDS011;46181;51.498;5.392;2022-12-18T18:01:21;19.264;;;10.564;;
59986;SDS011;46181;51.498;5.392;2022-12-18T18:05:51;23.792;;;11.172;;
59986;SDS011;46181;51.498;5.392;2022-12-18T18:10:21;19.8;;;10.908;;
59986;SDS011;46181;51.498;5.392;2022-12-18T18:14:51;21.232;;;10.724;;
59986;SDS011;46181;51.498;5.392;2022-12-18T18:19:21;22.652;;;11.144;;
59986;SDS011;46181;51.498;5.392;2022-12-18T18:23:51;19.452;;;11.104;;
59986;SDS011;46181;51.498;5.392;2022-12-18T18:28:21;21.912;;;11.016;;
59986;SDS011;46181;51.498;5.392;2022-12-18T18:32:51;19.528;;;10.76;;
59986;SDS011;46181;51.498;5.392;2022-12-18T18:37:21;18.344;;;10.156;;
59986;SDS011;46181;51.498;5.392;2022-12-18T18:41:51;19.628;;;10.764;;
59986;SDS011;46181;51.498;5.392;2022-12-18T18:46:21;18.092;;;10.716;;
59986;SDS011;46181;51.498;5.392;2022-12-18T18:50:58;18.844;;;10.208;;
59986;SDS011;46181;51.498;5.392;2022-12-18T18:55:21;19.824;;;10.544;;
59986;SDS011;46181;51.498;5.392;2022-12-18T18:59:51;19.692;;;11.196;;
59986;SDS011;46181;51.498;5.392;2022-12-18T19:04:21;18.652;;;10.992;;
59986;SDS011;46181;51.498;5.392;2022-12-18T19:08:51;20.26;;;11.036;;
59986;SDS011;46181;51.498;5.392;2022-12-18T19:13:21;23.228;;;11.34;;
59986;SDS011;46181;51.498;5.392;2022-12-18T19:17:51;23.1;;;11.332;;
59986;SDS011;46181;51.498;5.392;2022-12-18T19:22:21;22.512;;;11.092;;
59986;SDS011;46181;51.498;5.392;2022-12-18T19:26:51;23.304;;;10.984;;
59986;SDS011;46181;51.498;5.392;2022-12-18T19:31:21;23.248;;;11.236;;
59986;SDS011;46181;51.498;5.392;2022-12-18T19:35:51;22.98;;;11.636;;
59986;SDS011;46181;51.498;5.392;2022-12-18T19:40:21;26.028;;;12.752;;
59986;SDS011;46181;51.498;5.392;2022-12-18T19:44:51;24.332;;;12.452;;
59986;SDS011;46181;51.498;5.392;2022-12-18T19:49:25;24.412;;;12.384;;
59986;SDS011;46181;51.498;5.392;2022-12-18T19:53:51;24.828;;;13.064;;
59986;SDS011;46181;51.498;5.392;2022-12-18T19:58:21;21.396;;;11.792;;
59986;SDS011;46181;51.498;5.392;2022-12-18T20:02:51;23.188;;;12.072;;
59986;SDS011;46181;51.498;5.392;2022-12-18T20:07:21;24.148;;;12.772;;
59986;SDS011;46181;51.498;5.392;2022-12-18T20:11:51;26.452;;;12.288;;
59986;SDS011;46181;51.498;5.392;2022-12-18T20:16:21;25.72;;;12.448;;
59986;SDS011;46181;51.498;5.392;2022-12-18T20:20:51;25.956;;;12.684;;
59986;SDS011;46181;51.498;5.392;2022-12-18T20:25:21;24.324;;;12.66;;
59986;SDS011;46181;51.498;5.392;2022-12-18T20:29:51;26.864;;;13.504;;
59986;SDS011;46181;51.498;5.392;2022-12-18T20:34:21;27.444;;;15.908;;
59986;SDS011;46181;51.498;5.392;2022-12-18T20:38:51;25.412;;;13.188;;
59986;SDS011;46181;51.498;5.392;2022-12-18T20:43:21;25.352;;;12.936;;
59986;SDS011;46181;51.498;5.392;2022-12-18T20:47:51;22.7;;;12.256;;
59986;SDS011;46181;51.498;5.392;2022-12-18T20:52:21;25.076;;;13.268;;
59986;SDS011;46181;51.498;5.392;2022-12-18T20:56:51;25.244;;;12.74;;
59986;SDS011;46181;51.498;5.392;2022-12-18T21:01:21;26.688;;;13.732;;
59986;SDS011;46181;51.498;5.392;2022-12-18T21:05:51;23.92;;;12.528;;
59986;SDS011;46181;51.498;5.392;2022-12-18T21:10:21;22.488;;;11.944;;
59986;SDS011;46181;51.498;5.392;2022-12-18T21:14:51;23.908;;;12.168;;
59986;SDS011;46181;51.498;5.392;2022-12-18T21:19:21;26.03201;;;13.54;;
59986;SDS011;46181;51.498;5.392;2022-12-18T21:23:51;26.14;;;13.34;;
59986;SDS011;46181;51.498;5.392;2022-12-18T21:28:21;28.868;;;13.7;;
59986;SDS011;46181;51.498;5.392;2022-12-18T21:32:51;26;;;13.176;;
59986;SDS011;46181;51.498;5.392;2022-12-18T21:37:21;23.672;;;12.512;;
59986;SDS011;46181;51.498;5.392;2022-12-18T21:41:51;24.32001;;;11.86;;
59986;SDS011;46181;51.498;5.392;2022-12-18T21:46:21;38.648;;;22.18;;
59986;SDS011;46181;51.498;5.392;2022-12-18T21:50:51;29.164;;;15.66;;
59986;SDS011;46181;51.498;5.392;2022-12-18T21:55:21;28.664;;;15.352;;
59986;SDS011;46181;51.498;5.392;2022-12-18T21:59:51;24.948;;;13.304;;
59986;SDS011;46181;51.498;5.392;2022-12-18T22:04:21;24.664;;;13.02;;
59986;SDS011;46181;51.498;5.392;2022-12-18T22:08:51;26.3;;;13.5;;
59986;SDS011;46181;51.498;5.392;2022-12-18T22:13:21;29.20399;;;14.356;;
59986;SDS011;46181;51.498;5.392;2022-12-18T22:17:51;26.664;;;13.572;;
59986;SDS011;46181;51.498;5.392;2022-12-18T22:22:21;27.356;;;13.5;;
59986;SDS011;46181;51.498;5.392;2022-12-18T22:26:51;28.036;;;13.804;;
59986;SDS011;46181;51.498;5.392;2022-12-18T22:31:21;30.93601;;;13.296;;
59986;SDS011;46181;51.498;5.392;2022-12-18T22:35:51;27.364;;;13.668;;
59986;SDS011;46181;51.498;5.392;2022-12-18T22:40:21;31.596;;;14.928;;
59986;SDS011;46181;51.498;5.392;2022-12-18T22:44:51;0.556;;;0.556;;
59986;SDS011;46181;51.498;5.392;2022-12-18T22:49:21;0.796;;;0.596;;
59986;SDS011;46181;51.498;5.392;2022-12-18T22:53:51;0.608;;;0.608;;
59986;SDS011;46181;51.498;5.392;2022-12-18T22:58:21;0.888;;;0.888;;
59986;SDS011;46181;51.498;5.392;2022-12-18T23:02:51;0.22;;;0.22;;
59986;SDS011;46181;51.498;5.392;2022-12-18T23:07:21;0.576;;;0.576;;
59986;SDS011;46181;51.498;5.392;2022-12-18T23:11:51;0.32;;;0.32;;
59986;SDS011;46181;51.498;5.392;2022-12-18T23:16:21;2.076;;;1.888;;
59986;SDS011;46181;51.498;5.392;2022-12-18T23:20:51;2.588001;;;1.66;;
59986;SDS011;46181;51.498;5.392;2022-12-18T23:25:21;3.004;;;1.024;;
59986;SDS011;46181;51.498;5.392;2022-12-18T23:29:51;1.164;;;1.052;;
59986;SDS011;46181;51.498;5.392;2022-12-18T23:34:21;0.408;;;0.408;;
59986;SDS011;46181;51.498;5.392;2022-12-18T23:38:51;0.2;;;0.2;;
59986;SDS011;46181;51.498;5.392;2022-12-18T23:43:21;0.62;;;0.584;;
59986;SDS011;46181;51.498;5.392;2022-12-18T23:47:51;0.968;;;0.968;;
59986;SDS011;46181;51.498;5.392;2022-12-18T23:52:21;2.816;;;1.16;;
59986;SDS011;46181;51.498;5.392;2022-12-18T23:56:51;0.932;;;0.932;;
